sensor_id;sensor_type;location;lat;lon;timestamp;pressure;altitude;pressure_sealevel;temperature;humidity
54556;BME280;57291;37.520;15.106;2022-08-20T00:00:20;100685.19;;;26.26;55.44
54556;BME280;57291;37.520;15.106;2022-08-20T00:02:53;100689.59;;;26.23;55.27
54556;BME280;57291;37.520;15.106;2022-08-20T00:05:44;100686.81;;;26.16;55.16
54556;BME280;57291;37.520;15.106;2022-08-20T00:08:12;100696.78;;;26.10;55.04
54556;BME280;57291;37.520;15.106;2022-08-20T00:10:43;100694.44;;;25.98;55.50
54556;BME280;57291;37.520;15.106;2022-08-20T00:13:19;100696.81;;;25.95;54.80
54556;BME280;57291;37.520;15.106;2022-08-20T00:15:47;100686.09;;;25.94;55.32
54556;BME280;57291;37.520;15.106;2022-08-20T00:18:14;100682.91;;;25.92;54.85
54556;BME280;57291;37.520;15.106;2022-08-20T00:20:45;100694.81;;;25.92;54.65
54556;BME280;57291;37.520;15.106;2022-08-20T00:23:14;100690.84;;;25.83;53.27
54556;BME280;57291;37.520;15.106;2022-08-20T00:25:42;100692.44;;;25.66;53.10
54556;BME280;57291;37.520;15.106;2022-08-20T00:28:10;100690.09;;;25.54;53.30
54556;BME280;57291;37.520;15.106;2022-08-20T00:30:40;100699.22;;;25.50;52.93
54556;BME280;57291;37.520;15.106;2022-08-20T00:33:12;100692.06;;;25.46;52.85
54556;BME280;57291;37.520;15.106;2022-08-20T00:35:43;100685.31;;;25.43;52.65
54556;BME280;57291;37.520;15.106;2022-08-20T00:38:11;100682.94;;;25.45;51.47
54556;BME280;57291;37.520;15.106;2022-08-20T00:40:51;100689.28;;;25.42;52.05
54556;BME280;57291;37.520;15.106;2022-08-20T00:46:08;100696.44;;;25.43;51.74
54556;BME280;57291;37.520;15.106;2022-08-20T00:48:39;100695.25;;;25.37;52.01
54556;BME280;57291;37.520;15.106;2022-08-20T00:51:11;100688.50;;;25.31;52.32
54556;BME280;57291;37.520;15.106;2022-08-20T00:53:41;100695.22;;;25.30;52.36
54556;BME280;57291;37.520;15.106;2022-08-20T00:56:10;100694.06;;;25.31;51.77
54556;BME280;57291;37.520;15.106;2022-08-20T00:58:39;100696.44;;;25.33;52.07
54556;BME280;57291;37.520;15.106;2022-08-20T01:01:07;100701.63;;;25.34;52.23
54556;BME280;57291;37.520;15.106;2022-08-20T01:03:35;100698.44;;;25.18;51.39
54556;BME280;57291;37.520;15.106;2022-08-20T01:06:03;100698.41;;;25.14;51.50
54556;BME280;57291;37.520;15.106;2022-08-20T01:08:30;100697.56;;;25.10;51.67
54556;BME280;57291;37.520;15.106;2022-08-20T01:10:58;100703.53;;;25.09;51.45
54556;BME280;57291;37.520;15.106;2022-08-20T01:13:37;100704.75;;;25.08;51.07
54556;BME280;57291;37.520;15.106;2022-08-20T01:16:25;100688.03;;;25.00;50.96
54556;BME280;57291;37.520;15.106;2022-08-20T01:18:54;100696.34;;;24.97;51.32
54556;BME280;57291;37.520;15.106;2022-08-20T01:21:24;100697.97;;;24.98;51.05
54556;BME280;57291;37.520;15.106;2022-08-20T01:24:06;100696.78;;;24.99;51.17
54556;BME280;57291;37.520;15.106;2022-08-20T01:26:41;100696.38;;;25.00;51.39
54556;BME280;57291;37.520;15.106;2022-08-20T01:29:14;100699.13;;;25.00;52.63
54556;BME280;57291;37.520;15.106;2022-08-20T01:31:42;100699.56;;;24.99;52.02
54556;BME280;57291;37.520;15.106;2022-08-20T01:34:13;100701.13;;;25.00;52.49
54556;BME280;57291;37.520;15.106;2022-08-20T01:36:44;100704.69;;;25.00;53.62
54556;BME280;57291;37.520;15.106;2022-08-20T01:39:15;100693.19;;;24.95;56.11
54556;BME280;57291;37.520;15.106;2022-08-20T01:44:12;100698.31;;;24.75;58.84
54556;BME280;57291;37.520;15.106;2022-08-20T01:46:46;100701.44;;;24.63;59.06
54556;BME280;57291;37.520;15.106;2022-08-20T01:49:20;100695.44;;;24.53;59.74
54556;BME280;57291;37.520;15.106;2022-08-20T01:51:51;100699.41;;;24.45;59.37
54556;BME280;57291;37.520;15.106;2022-08-20T01:54:19;100699.31;;;24.38;60.13
54556;BME280;57291;37.520;15.106;2022-08-20T01:56:57;100701.66;;;24.29;60.53
54556;BME280;57291;37.520;15.106;2022-08-20T01:59:26;100702.00;;;24.20;61.02
54556;BME280;57291;37.520;15.106;2022-08-20T02:01:56;100702.00;;;24.20;59.25
54556;BME280;57291;37.520;15.106;2022-08-20T02:04:24;100705.97;;;24.16;59.63
54556;BME280;57291;37.520;15.106;2022-08-20T02:06:55;100703.19;;;24.12;59.80
54556;BME280;57291;37.520;15.106;2022-08-20T02:09:25;100699.56;;;24.11;60.28
54556;BME280;57291;37.520;15.106;2022-08-20T02:11:53;100699.22;;;24.13;59.90
54556;BME280;57291;37.520;15.106;2022-08-20T02:14:20;100710.28;;;24.09;59.44
54556;BME280;57291;37.520;15.106;2022-08-20T02:16:48;100716.22;;;24.08;59.37
54556;BME280;57291;37.520;15.106;2022-08-20T02:19:25;100715.81;;;24.06;59.69
54556;BME280;57291;37.520;15.106;2022-08-20T02:21:56;100728.50;;;24.03;59.77
54556;BME280;57291;37.520;15.106;2022-08-20T02:24:24;100723.72;;;24.00;60.28
54556;BME280;57291;37.520;15.106;2022-08-20T02:26:51;100719.75;;;24.01;60.35
54556;BME280;57291;37.520;15.106;2022-08-20T02:29:19;100713.81;;;24.03;60.50
54556;BME280;57291;37.520;15.106;2022-08-20T02:31:46;100714.22;;;24.05;60.53
54556;BME280;57291;37.520;15.106;2022-08-20T02:34:34;100717.81;;;24.05;60.78
54556;BME280;57291;37.520;15.106;2022-08-20T02:37:03;100717.41;;;24.07;60.35
54556;BME280;57291;37.520;15.106;2022-08-20T02:39:31;100724.59;;;24.15;60.16
54556;BME280;57291;37.520;15.106;2022-08-20T02:41:58;100724.63;;;24.19;60.27
54556;BME280;57291;37.520;15.106;2022-08-20T02:44:26;100714.69;;;24.21;60.05
54556;BME280;57291;37.520;15.106;2022-08-20T02:46:53;100712.69;;;24.18;59.96
54556;BME280;57291;37.520;15.106;2022-08-20T02:49:20;100719.84;;;24.16;60.21
54556;BME280;57291;37.520;15.106;2022-08-20T02:51:48;100722.63;;;24.16;60.13
54556;BME280;57291;37.520;15.106;2022-08-20T02:54:15;100727.00;;;24.17;60.07
54556;BME280;57291;37.520;15.106;2022-08-20T02:56:43;100715.91;;;24.20;59.99
54556;BME280;57291;37.520;15.106;2022-08-20T02:59:10;100720.28;;;24.25;60.52
54556;BME280;57291;37.520;15.106;2022-08-20T03:01:46;100715.94;;;24.31;60.06
54556;BME280;57291;37.520;15.106;2022-08-20T03:04:27;100720.72;;;24.34;60.51
54556;BME280;57291;37.520;15.106;2022-08-20T03:06:55;100719.94;;;24.37;59.86
54556;BME280;57291;37.520;15.106;2022-08-20T03:09:23;100723.56;;;24.41;59.79
54556;BME280;57291;37.520;15.106;2022-08-20T03:11:50;100727.50;;;24.40;59.44
54556;BME280;57291;37.520;15.106;2022-08-20T03:14:18;100725.91;;;24.39;59.63
54556;BME280;57291;37.520;15.106;2022-08-20T03:16:45;100731.06;;;24.37;59.63
54556;BME280;57291;37.520;15.106;2022-08-20T03:19:13;100725.13;;;24.35;59.26
54556;BME280;57291;37.520;15.106;2022-08-20T03:21:40;100731.03;;;24.33;59.32
54556;BME280;57291;37.520;15.106;2022-08-20T03:24:08;100729.03;;;24.30;59.72
54556;BME280;57291;37.520;15.106;2022-08-20T03:26:35;100733.38;;;24.28;59.68
54556;BME280;57291;37.520;15.106;2022-08-20T03:29:03;100733.78;;;24.26;59.51
54556;BME280;57291;37.520;15.106;2022-08-20T03:31:30;100739.72;;;24.25;59.49
54556;BME280;57291;37.520;15.106;2022-08-20T03:33:57;100733.78;;;24.26;59.83
54556;BME280;57291;37.520;15.106;2022-08-20T03:36:26;100734.97;;;24.25;59.79
54556;BME280;57291;37.520;15.106;2022-08-20T03:38:55;100731.00;;;24.26;59.59
54556;BME280;57291;37.520;15.106;2022-08-20T03:41:24;100742.13;;;24.30;59.70
54556;BME280;57291;37.520;15.106;2022-08-20T03:43:51;100748.91;;;24.32;59.10
54556;BME280;57291;37.520;15.106;2022-08-20T03:46:18;100747.34;;;24.35;58.83
54556;BME280;57291;37.520;15.106;2022-08-20T03:48:52;100756.09;;;24.41;58.12
54556;BME280;57291;37.520;15.106;2022-08-20T03:51:28;100753.75;;;24.46;57.94
54556;BME280;57291;37.520;15.106;2022-08-20T03:53:57;100757.75;;;24.49;57.82
54556;BME280;57291;37.520;15.106;2022-08-20T03:56:25;100758.97;;;24.51;57.91
54556;BME280;57291;37.520;15.106;2022-08-20T03:58:52;100760.91;;;24.51;57.30
54556;BME280;57291;37.520;15.106;2022-08-20T04:01:20;100763.69;;;24.54;57.08
54556;BME280;57291;37.520;15.106;2022-08-20T04:04:07;100752.22;;;24.60;57.10
54556;BME280;57291;37.520;15.106;2022-08-20T04:06:38;100755.81;;;24.64;56.58
54556;BME280;57291;37.520;15.106;2022-08-20T04:09:07;100757.03;;;24.66;56.83
54556;BME280;57291;37.520;15.106;2022-08-20T04:11:37;100755.81;;;24.67;56.53
54556;BME280;57291;37.520;15.106;2022-08-20T04:14:04;100763.78;;;24.69;56.70
54556;BME280;57291;37.520;15.106;2022-08-20T04:16:31;100766.16;;;24.70;56.95
54556;BME280;57291;37.520;15.106;2022-08-20T04:18:59;100772.13;;;24.72;56.87
54556;BME280;57291;37.520;15.106;2022-08-20T04:21:32;100774.16;;;24.79;55.85
54556;BME280;57291;37.520;15.106;2022-08-20T04:24:02;100766.22;;;24.81;55.98
54556;BME280;57291;37.520;15.106;2022-08-20T04:26:30;100766.63;;;24.83;55.61
54556;BME280;57291;37.520;15.106;2022-08-20T04:28:57;100765.03;;;24.86;56.22
54556;BME280;57291;37.520;15.106;2022-08-20T04:31:25;100769.03;;;24.88;55.95
54556;BME280;57291;37.520;15.106;2022-08-20T04:34:03;100769.81;;;24.92;56.16
54556;BME280;57291;37.520;15.106;2022-08-20T04:36:34;100767.06;;;24.99;55.54
54556;BME280;57291;37.520;15.106;2022-08-20T04:39:01;100773.84;;;25.06;55.62
54556;BME280;57291;37.520;15.106;2022-08-20T04:41:28;100775.47;;;25.14;55.21
54556;BME280;57291;37.520;15.106;2022-08-20T04:43:56;100776.69;;;25.27;54.66
54556;BME280;57291;37.520;15.106;2022-08-20T04:46:25;100787.06;;;25.62;54.42
54556;BME280;57291;37.520;15.106;2022-08-20T04:48:55;100786.72;;;25.85;53.41
54556;BME280;57291;37.520;15.106;2022-08-20T04:51:23;100789.47;;;25.92;53.36
54556;BME280;57291;37.520;15.106;2022-08-20T04:53:54;100789.50;;;26.03;53.45
54556;BME280;57291;37.520;15.106;2022-08-20T04:56:25;100776.22;;;26.68;51.36
54556;BME280;57291;37.520;15.106;2022-08-20T04:58:55;100781.28;;;28.10;48.79
54556;BME280;57291;37.520;15.106;2022-08-20T05:01:23;100769.63;;;29.44;44.88
54556;BME280;57291;37.520;15.106;2022-08-20T05:03:53;100765.16;;;29.98;43.09
54556;BME280;57291;37.520;15.106;2022-08-20T05:06:23;100762.81;;;29.73;43.15
54556;BME280;57291;37.520;15.106;2022-08-20T05:08:52;100762.94;;;29.38;43.45
54556;BME280;57291;37.520;15.106;2022-08-20T05:11:19;100766.88;;;29.41;44.21
54556;BME280;57291;37.520;15.106;2022-08-20T05:14:06;100767.06;;;30.28;42.93
54556;BME280;57291;37.520;15.106;2022-08-20T05:16:36;100766.72;;;31.87;39.59
54556;BME280;57291;37.520;15.106;2022-08-20T05:19:10;100761.28;;;33.35;36.78
54556;BME280;57291;37.520;15.106;2022-08-20T05:21:38;100769.81;;;34.52;34.59
54556;BME280;57291;37.520;15.106;2022-08-20T05:24:06;100772.94;;;35.47;33.00
54556;BME280;57291;37.520;15.106;2022-08-20T05:26:33;100780.94;;;35.49;31.14
54556;BME280;57291;37.520;15.106;2022-08-20T05:29:01;100783.72;;;36.35;31.14
54556;BME280;57291;37.520;15.106;2022-08-20T05:31:31;100790.44;;;36.84;29.35
54556;BME280;57291;37.520;15.106;2022-08-20T05:34:05;100786.47;;;37.42;29.04
54556;BME280;57291;37.520;15.106;2022-08-20T05:36:43;100796.94;;;37.60;28.21
54556;BME280;57291;37.520;15.106;2022-08-20T05:39:16;100788.94;;;38.21;27.50
54556;BME280;57291;37.520;15.106;2022-08-20T05:41:44;100803.31;;;38.18;27.30
54556;BME280;57291;37.520;15.106;2022-08-20T05:44:11;100795.41;;;38.22;26.70
54556;BME280;57291;37.520;15.106;2022-08-20T05:46:43;100798.44;;;38.18;26.97
54556;BME280;57291;37.520;15.106;2022-08-20T05:49:15;100802.31;;;38.60;27.15
54556;BME280;57291;37.520;15.106;2022-08-20T05:51:42;100799.59;;;38.12;27.14
54556;BME280;57291;37.520;15.106;2022-08-20T05:54:10;100786.34;;;38.62;26.46
54556;BME280;57291;37.520;15.106;2022-08-20T05:56:38;100792.97;;;38.83;25.90
54556;BME280;57291;37.520;15.106;2022-08-20T05:59:09;100794.00;;;38.41;26.82
54556;BME280;57291;37.520;15.106;2022-08-20T06:01:41;100791.94;;;38.71;26.30
54556;BME280;57291;37.520;15.106;2022-08-20T06:04:10;100793.69;;;39.13;26.11
54556;BME280;57291;37.520;15.106;2022-08-20T06:07:03;100779.91;;;39.42;25.27
54556;BME280;57291;37.520;15.106;2022-08-20T06:09:31;100786.59;;;39.74;25.12
54556;BME280;57291;37.520;15.106;2022-08-20T06:12:01;100781.59;;;39.69;24.99
54556;BME280;57291;37.520;15.106;2022-08-20T06:14:29;100781.19;;;39.76;24.86
54556;BME280;57291;37.520;15.106;2022-08-20T06:17:12;100786.81;;;39.35;25.29
54556;BME280;57291;37.520;15.106;2022-08-20T06:19:42;100789.09;;;39.51;25.67
54556;BME280;57291;37.520;15.106;2022-08-20T06:22:11;100784.91;;;39.47;25.42
54556;BME280;57291;37.520;15.106;2022-08-20T06:24:50;100784.03;;;38.90;26.01
54556;BME280;57291;37.520;15.106;2022-08-20T06:27:18;100790.03;;;38.24;26.72
54556;BME280;57291;37.520;15.106;2022-08-20T06:29:45;100787.75;;;38.97;25.69
54556;BME280;57291;37.520;15.106;2022-08-20T06:32:13;100790.41;;;38.85;26.63
54556;BME280;57291;37.520;15.106;2022-08-20T06:34:40;100793.78;;;39.34;25.72
54556;BME280;57291;37.520;15.106;2022-08-20T06:37:20;100796.88;;;38.17;26.80
54556;BME280;57291;37.520;15.106;2022-08-20T06:39:49;100795.78;;;36.82;27.84
54556;BME280;57291;37.520;15.106;2022-08-20T06:42:19;100800.72;;;37.57;28.12
54556;BME280;57291;37.520;15.106;2022-08-20T06:44:47;100803.59;;;37.81;27.51
54556;BME280;57291;37.520;15.106;2022-08-20T06:47:18;100798.50;;;38.09;26.93
54556;BME280;57291;37.520;15.106;2022-08-20T06:49:47;100796.63;;;38.60;26.30
54556;BME280;57291;37.520;15.106;2022-08-20T06:52:14;100807.25;;;37.48;27.06
54556;BME280;57291;37.520;15.106;2022-08-20T06:54:44;100802.19;;;37.10;28.17
54556;BME280;57291;37.520;15.106;2022-08-20T06:57:11;100786.09;;;36.65;28.95
54556;BME280;57291;37.520;15.106;2022-08-20T06:59:39;100785.00;;;36.44;29.98
54556;BME280;57291;37.520;15.106;2022-08-20T07:02:07;100783.13;;;35.45;32.11
54556;BME280;57291;37.520;15.106;2022-08-20T07:04:35;100786.91;;;35.51;32.76
54556;BME280;57291;37.520;15.106;2022-08-20T07:07:03;100789.22;;;36.67;31.79
54556;BME280;57291;37.520;15.106;2022-08-20T07:09:30;100787.03;;;35.97;31.77
54556;BME280;57291;37.520;15.106;2022-08-20T07:11:57;100797.69;;;35.75;32.25
54556;BME280;57291;37.520;15.106;2022-08-20T07:14:25;100801.91;;;36.90;29.92
54556;BME280;57291;37.520;15.106;2022-08-20T07:16:52;100799.72;;;37.36;29.41
54556;BME280;57291;37.520;15.106;2022-08-20T07:19:20;100795.03;;;37.24;29.19
54556;BME280;57291;37.520;15.106;2022-08-20T07:21:47;100799.06;;;37.98;28.05
54556;BME280;57291;37.520;15.106;2022-08-20T07:24:16;100800.50;;;38.33;26.92
54556;BME280;57291;37.520;15.106;2022-08-20T07:26:44;100797.66;;;38.86;25.77
54556;BME280;57291;37.520;15.106;2022-08-20T07:29:12;100804.22;;;38.24;27.74
54556;BME280;57291;37.520;15.106;2022-08-20T07:31:39;100801.44;;;38.54;26.47
54556;BME280;57291;37.520;15.106;2022-08-20T07:34:25;100805.19;;;39.04;25.63
54556;BME280;57291;37.520;15.106;2022-08-20T07:36:53;100799.53;;;39.25;25.61
54556;BME280;57291;37.520;15.106;2022-08-20T07:39:21;100795.38;;;37.17;27.96
54556;BME280;57291;37.520;15.106;2022-08-20T07:41:48;100798.84;;;37.54;29.70
54556;BME280;57291;37.520;15.106;2022-08-20T07:44:29;100803.78;;;37.02;30.71
54556;BME280;57291;37.520;15.106;2022-08-20T07:46:58;100809.53;;;36.37;32.22
54556;BME280;57291;37.520;15.106;2022-08-20T07:49:25;100810.59;;;35.94;32.48
54556;BME280;57291;37.520;15.106;2022-08-20T07:51:53;100809.44;;;35.33;33.68
54556;BME280;57291;37.520;15.106;2022-08-20T07:54:22;100813.75;;;34.62;34.78
54556;BME280;57291;37.520;15.106;2022-08-20T07:56:50;100811.56;;;34.22;34.74
54556;BME280;57291;37.520;15.106;2022-08-20T07:59:17;100816.56;;;33.93;35.93
54556;BME280;57291;37.520;15.106;2022-08-20T08:01:46;100813.50;;;34.00;35.97
54556;BME280;57291;37.520;15.106;2022-08-20T08:04:13;100808.19;;;34.15;34.29
54556;BME280;57291;37.520;15.106;2022-08-20T08:06:41;100808.28;;;34.46;34.98
54556;BME280;57291;37.520;15.106;2022-08-20T08:09:12;100810.16;;;34.27;36.04
54556;BME280;57291;37.520;15.106;2022-08-20T08:11:44;100806.09;;;34.06;36.50
54556;BME280;57291;37.520;15.106;2022-08-20T08:14:22;100814.81;;;33.73;36.28
54556;BME280;57291;37.520;15.106;2022-08-20T08:16:54;100819.69;;;33.60;36.88
54556;BME280;57291;37.520;15.106;2022-08-20T08:19:24;100828.22;;;33.31;37.84
54556;BME280;57291;37.520;15.106;2022-08-20T08:21:52;100823.72;;;33.33;38.28
54556;BME280;57291;37.520;15.106;2022-08-20T08:24:19;100832.75;;;33.54;38.87
54556;BME280;57291;37.520;15.106;2022-08-20T08:26:54;100837.88;;;33.30;37.79
54556;BME280;57291;37.520;15.106;2022-08-20T08:29:22;100837.97;;;33.13;38.66
54556;BME280;57291;37.520;15.106;2022-08-20T08:31:49;100828.22;;;33.31;38.04
54556;BME280;57291;37.520;15.106;2022-08-20T08:34:17;100835.31;;;33.48;37.26
54556;BME280;57291;37.520;15.106;2022-08-20T08:40:00;100844.50;;;32.68;39.18
54556;BME280;57291;37.520;15.106;2022-08-20T08:44:58;100829.88;;;32.44;39.47
54556;BME280;57291;37.520;15.106;2022-08-20T08:47:31;100835.88;;;32.30;39.61
54556;BME280;57291;37.520;15.106;2022-08-20T08:50:03;100828.16;;;32.18;41.37
54556;BME280;57291;37.520;15.106;2022-08-20T08:52:35;100840.94;;;31.90;42.07
54556;BME280;57291;37.520;15.106;2022-08-20T08:55:11;100837.31;;;31.57;42.38
54556;BME280;57291;37.520;15.106;2022-08-20T08:57:42;100829.38;;;31.15;43.97
54556;BME280;57291;37.520;15.106;2022-08-20T09:00:15;100828.41;;;31.05;45.62
54556;BME280;57291;37.520;15.106;2022-08-20T09:03:07;100831.22;;;30.86;45.00
54556;BME280;57291;37.520;15.106;2022-08-20T09:05:39;100834.38;;;30.68;45.20
54556;BME280;57291;37.520;15.106;2022-08-20T09:08:15;100824.56;;;30.56;45.13
54556;BME280;57291;37.520;15.106;2022-08-20T09:10:45;100831.31;;;30.38;45.84
54556;BME280;57291;37.520;15.106;2022-08-20T09:13:12;100828.50;;;30.19;46.78
54556;BME280;57291;37.520;15.106;2022-08-20T09:15:40;100834.09;;;30.19;46.95
54556;BME280;57291;37.520;15.106;2022-08-20T09:18:08;100821.88;;;30.05;45.77
54556;BME280;57291;37.520;15.106;2022-08-20T09:20:35;100827.84;;;30.07;46.50
54556;BME280;57291;37.520;15.106;2022-08-20T09:23:06;100828.41;;;30.22;46.07
54556;BME280;57291;37.520;15.106;2022-08-20T09:25:34;100820.91;;;30.15;45.68
54556;BME280;57291;37.520;15.106;2022-08-20T09:28:01;100828.50;;;30.19;46.70
54556;BME280;57291;37.520;15.106;2022-08-20T09:30:30;100821.69;;;30.16;45.49
54556;BME280;57291;37.520;15.106;2022-08-20T09:32:58;100826.47;;;30.19;45.80
54556;BME280;57291;37.520;15.106;2022-08-20T09:35:29;100829.69;;;30.18;46.29
54556;BME280;57291;37.520;15.106;2022-08-20T09:37:57;100823.13;;;30.04;46.81
54556;BME280;57291;37.520;15.106;2022-08-20T09:40:25;100830.63;;;29.84;48.90
54556;BME280;57291;37.520;15.106;2022-08-20T09:42:52;100830.09;;;29.92;49.00
54556;BME280;57291;37.520;15.106;2022-08-20T09:45:20;100825.00;;;30.11;47.19
54556;BME280;57291;37.520;15.106;2022-08-20T09:47:47;100816.41;;;30.22;47.30
54556;BME280;57291;37.520;15.106;2022-08-20T09:50:28;100824.06;;;30.41;47.51
54556;BME280;57291;37.520;15.106;2022-08-20T09:52:57;100814.81;;;30.44;48.71
54556;BME280;57291;37.520;15.106;2022-08-20T09:55:43;100817.59;;;30.44;47.30
54556;BME280;57291;37.520;15.106;2022-08-20T10:01:14;100805.66;;;30.60;48.49
54556;BME280;57291;37.520;15.106;2022-08-20T10:03:43;100802.78;;;30.44;48.14
54556;BME280;57291;37.520;15.106;2022-08-20T10:06:10;100811.56;;;30.46;48.56
54556;BME280;57291;37.520;15.106;2022-08-20T10:08:40;100810.56;;;30.56;48.28
54556;BME280;57291;37.520;15.106;2022-08-20T10:11:08;100809.75;;;30.55;47.19
54556;BME280;57291;37.520;15.106;2022-08-20T10:13:35;100815.28;;;30.39;48.29
54556;BME280;57291;37.520;15.106;2022-08-20T10:16:02;100812.75;;;30.25;49.26
54556;BME280;57291;37.520;15.106;2022-08-20T10:18:30;100813.41;;;30.32;49.53
54556;BME280;57291;37.520;15.106;2022-08-20T10:20:57;100807.94;;;30.25;50.19
54556;BME280;57291;37.520;15.106;2022-08-20T10:23:24;100812.00;;;30.44;49.56
54556;BME280;57291;37.520;15.106;2022-08-20T10:25:52;100808.91;;;30.58;48.42
54556;BME280;57291;37.520;15.106;2022-08-20T10:28:19;100812.50;;;30.39;48.77
54556;BME280;57291;37.520;15.106;2022-08-20T10:30:46;100808.44;;;30.40;49.26
54556;BME280;57291;37.520;15.106;2022-08-20T10:33:13;100804.53;;;30.57;49.55
54556;BME280;57291;37.520;15.106;2022-08-20T10:35:41;100811.00;;;30.54;48.21
54556;BME280;57291;37.520;15.106;2022-08-20T10:38:08;100813.66;;;30.61;48.12
54556;BME280;57291;37.520;15.106;2022-08-20T10:40:35;100808.13;;;30.58;48.10
54556;BME280;57291;37.520;15.106;2022-08-20T10:43:03;100813.34;;;30.56;48.35
54556;BME280;57291;37.520;15.106;2022-08-20T10:45:30;100812.50;;;30.59;50.65
54556;BME280;57291;37.520;15.106;2022-08-20T10:47:59;100816.25;;;30.52;49.32
54556;BME280;57291;37.520;15.106;2022-08-20T10:50:27;100818.41;;;30.65;50.07
54556;BME280;57291;37.520;15.106;2022-08-20T10:52:57;100814.97;;;30.57;50.01
54556;BME280;57291;37.520;15.106;2022-08-20T10:55:24;100807.91;;;30.69;48.69
54556;BME280;57291;37.520;15.106;2022-08-20T10:57:52;100817.34;;;30.78;48.95
54556;BME280;57291;37.520;15.106;2022-08-20T11:00:19;100812.53;;;30.79;48.92
54556;BME280;57291;37.520;15.106;2022-08-20T11:02:46;100817.13;;;30.89;48.35
54556;BME280;57291;37.520;15.106;2022-08-20T11:05:14;100827.72;;;30.81;47.39
54556;BME280;57291;37.520;15.106;2022-08-20T11:07:42;100823.31;;;30.80;47.49
54556;BME280;57291;37.520;15.106;2022-08-20T11:10:27;100819.75;;;30.56;48.42
54556;BME280;57291;37.520;15.106;2022-08-20T11:12:56;100823.66;;;30.82;47.86
54556;BME280;57291;37.520;15.106;2022-08-20T11:15:23;100824.22;;;30.74;47.71
54556;BME280;57291;37.520;15.106;2022-08-20T11:17:51;100828.25;;;30.93;47.06
54556;BME280;57291;37.520;15.106;2022-08-20T11:20:20;100829.09;;;30.70;44.87
54556;BME280;57291;37.520;15.106;2022-08-20T11:22:49;100829.41;;;30.75;46.93
54556;BME280;57291;37.520;15.106;2022-08-20T11:25:17;100830.19;;;30.76;47.62
54556;BME280;57291;37.520;15.106;2022-08-20T11:27:48;100832.94;;;30.99;47.71
54556;BME280;57291;37.520;15.106;2022-08-20T11:30:25;100832.16;;;30.79;47.06
54556;BME280;57291;37.520;15.106;2022-08-20T11:32:53;100824.38;;;31.06;47.29
54556;BME280;57291;37.520;15.106;2022-08-20T11:35:20;100825.34;;;31.00;47.73
54556;BME280;57291;37.520;15.106;2022-08-20T11:38:09;100836.75;;;30.89;49.11
54556;BME280;57291;37.520;15.106;2022-08-20T11:40:37;100839.00;;;30.98;48.35
54556;BME280;57291;37.520;15.106;2022-08-20T11:43:04;100836.81;;;31.05;48.92
54556;BME280;57291;37.520;15.106;2022-08-20T11:45:43;100830.72;;;30.91;48.56
54556;BME280;57291;37.520;15.106;2022-08-20T11:48:11;100833.41;;;30.78;48.88
54556;BME280;57291;37.520;15.106;2022-08-20T11:50:40;100835.94;;;30.69;49.69
54556;BME280;57291;37.520;15.106;2022-08-20T11:53:07;100826.59;;;30.75;50.30
54556;BME280;57291;37.520;15.106;2022-08-20T11:55:36;100827.38;;;30.76;48.45
54556;BME280;57291;37.520;15.106;2022-08-20T11:58:05;100840.22;;;30.97;49.67
54556;BME280;57291;37.520;15.106;2022-08-20T12:00:33;100850.28;;;30.94;48.51
54556;BME280;57291;37.520;15.106;2022-08-20T12:03:04;100845.22;;;31.05;50.33
54556;BME280;57291;37.520;15.106;2022-08-20T12:05:39;100844.16;;;30.99;49.53
54556;BME280;57291;37.520;15.106;2022-08-20T12:08:07;100832.31;;;30.92;48.26
54556;BME280;57291;37.520;15.106;2022-08-20T12:10:36;100823.88;;;30.72;48.13
54556;BME280;57291;37.520;15.106;2022-08-20T12:13:05;100825.41;;;30.76;48.32
54556;BME280;57291;37.520;15.106;2022-08-20T12:15:34;100819.81;;;30.53;49.67
54556;BME280;57291;37.520;15.106;2022-08-20T12:18:09;100828.81;;;30.44;49.77
54556;BME280;57291;37.520;15.106;2022-08-20T12:20:36;100829.38;;;30.35;50.45
54556;BME280;57291;37.520;15.106;2022-08-20T12:23:03;100836.22;;;30.34;49.14
54556;BME280;57291;37.520;15.106;2022-08-20T12:25:31;100837.41;;;30.10;50.64
54556;BME280;57291;37.520;15.106;2022-08-20T12:27:58;100825.66;;;29.72;50.84
54556;BME280;57291;37.520;15.106;2022-08-20T12:30:25;100816.56;;;29.87;53.03
54556;BME280;57291;37.520;15.106;2022-08-20T12:32:53;100821.16;;;30.01;54.02
54556;BME280;57291;37.520;15.106;2022-08-20T12:35:20;100821.25;;;29.94;54.26
54556;BME280;57291;37.520;15.106;2022-08-20T12:37:47;100832.31;;;30.05;54.13
54556;BME280;57291;37.520;15.106;2022-08-20T12:40:20;100827.50;;;30.29;54.51
54556;BME280;57291;37.520;15.106;2022-08-20T12:43:00;100825.03;;;30.07;53.71
54556;BME280;57291;37.520;15.106;2022-08-20T12:45:29;100823.28;;;29.94;54.74
54556;BME280;57291;37.520;15.106;2022-08-20T12:48:08;100823.72;;;29.92;54.92
54556;BME280;57291;37.520;15.106;2022-08-20T12:50:38;100830.88;;;29.70;55.35
54556;BME280;57291;37.520;15.106;2022-08-20T12:53:05;100828.41;;;29.44;54.47
54556;BME280;57291;37.520;15.106;2022-08-20T12:55:34;100829.06;;;29.56;55.67
54556;BME280;57291;37.520;15.106;2022-08-20T12:58:02;100822.03;;;29.44;56.32
54556;BME280;57291;37.520;15.106;2022-08-20T13:00:38;100819.91;;;29.25;55.93
54556;BME280;57291;37.520;15.106;2022-08-20T13:03:11;100821.97;;;29.20;56.52
54556;BME280;57291;37.520;15.106;2022-08-20T13:05:39;100809.63;;;29.45;57.48
54556;BME280;57291;37.520;15.106;2022-08-20T13:08:08;100829.53;;;29.78;55.49